sensor_id;sensor_type;location;lat;lon;timestamp;pressure;altitude;pressure_sealevel;temperature;humidity
59729;BME280;45588;51.598;5.618;2022-09-09T00:01:37;100671.47;;;13.21;100.00
59729;BME280;45588;51.598;5.618;2022-09-09T00:04:16;100661.81;;;13.14;100.00
59729;BME280;45588;51.598;5.618;2022-09-09T00:06:45;100663.56;;;13.15;100.00
59729;BME280;45588;51.598;5.618;2022-09-09T00:09:17;100669.63;;;13.11;100.00
59729;BME280;45588;51.598;5.618;2022-09-09T00:12:06;100658.28;;;13.09;100.00
59729;BME280;45588;51.598;5.618;2022-09-09T00:14:56;100652.16;;;13.06;100.00
59729;BME280;45588;51.598;5.618;2022-09-09T00:17:31;100660.00;;;13.06;100.00
59729;BME280;45588;51.598;5.618;2022-09-09T00:20:05;100659.09;;;13.05;100.00
59729;BME280;45588;51.598;5.618;2022-09-09T00:22:38;100656.47;;;13.05;100.00
59729;BME280;45588;51.598;5.618;2022-09-09T00:25:15;100638.09;;;12.96;100.00
59729;BME280;45588;51.598;5.618;2022-09-09T00:27:47;100643.34;;;12.99;100.00
59729;BME280;45588;51.598;5.618;2022-09-09T00:32:38;100645.06;;;12.97;100.00
59729;BME280;45588;51.598;5.618;2022-09-09T00:37:35;100657.25;;;12.95;100.00
59729;BME280;45588;51.598;5.618;2022-09-09T00:40:02;100646.75;;;12.89;100.00
59729;BME280;45588;51.598;5.618;2022-09-09T00:47:59;100648.47;;;12.90;100.00
59729;BME280;45588;51.598;5.618;2022-09-09T00:50:43;100641.50;;;12.86;100.00
59729;BME280;45588;51.598;5.618;2022-09-09T00:53:39;100635.41;;;12.85;100.00
59729;BME280;45588;51.598;5.618;2022-09-09T00:56:20;100641.50;;;12.86;100.00
59729;BME280;45588;51.598;5.618;2022-09-09T00:59:08;100635.34;;;12.81;100.00
59729;BME280;45588;51.598;5.618;2022-09-09T01:01:39;100637.97;;;12.84;100.00
59729;BME280;45588;51.598;5.618;2022-09-09T01:04:10;100636.25;;;12.83;100.00
59729;BME280;45588;51.598;5.618;2022-09-09T01:06:41;100626.59;;;12.78;100.00
59729;BME280;45588;51.598;5.618;2022-09-09T01:09:18;100625.72;;;12.76;100.00
59729;BME280;45588;51.598;5.618;2022-09-09T01:14:48;100623.91;;;12.72;100.00
59729;BME280;45588;51.598;5.618;2022-09-09T01:17:50;100630.91;;;12.73;100.00
59729;BME280;45588;51.598;5.618;2022-09-09T01:20:26;100630.88;;;12.72;100.00
59729;BME280;45588;51.598;5.618;2022-09-09T01:26:08;100631.72;;;12.68;100.00
59729;BME280;45588;51.598;5.618;2022-09-09T01:28:37;100629.09;;;12.68;100.00
59729;BME280;45588;51.598;5.618;2022-09-09T01:31:06;100619.44;;;12.62;100.00
59729;BME280;45588;51.598;5.618;2022-09-09T01:33:32;100622.13;;;12.65;100.00
59729;BME280;45588;51.598;5.618;2022-09-09T01:36:08;100624.75;;;12.68;100.00
59729;BME280;45588;51.598;5.618;2022-09-09T01:38:36;100623.03;;;12.70;100.00
59729;BME280;45588;51.598;5.618;2022-09-09T01:41:01;100622.13;;;12.70;100.00
59729;BME280;45588;51.598;5.618;2022-09-09T01:43:27;100624.78;;;12.71;100.00
59729;BME280;45588;51.598;5.618;2022-09-09T01:45:56;100622.13;;;12.70;100.00
59729;BME280;45588;51.598;5.618;2022-09-09T01:48:24;100617.84;;;12.73;100.00
59729;BME280;45588;51.598;5.618;2022-09-09T01:50:50;100620.44;;;12.73;100.00
59729;BME280;45588;51.598;5.618;2022-09-09T01:53:17;100613.47;;;12.71;100.00
59729;BME280;45588;51.598;5.618;2022-09-09T01:56:00;100612.63;;;12.73;100.00
59729;BME280;45588;51.598;5.618;2022-09-09T02:01:54;100619.59;;;12.73;100.00
59729;BME280;45588;51.598;5.618;2022-09-09T02:04:27;100619.56;;;12.71;100.00
59729;BME280;45588;51.598;5.618;2022-09-09T02:06:57;100614.31;;;12.70;100.00
59729;BME280;45588;51.598;5.618;2022-09-09T02:09:24;100610.81;;;12.69;100.00
59729;BME280;45588;51.598;5.618;2022-09-09T02:11:58;100609.94;;;12.69;100.00
59729;BME280;45588;51.598;5.618;2022-09-09T02:14:30;100597.69;;;12.63;100.00
59729;BME280;45588;51.598;5.618;2022-09-09T02:17:02;100597.72;;;12.66;100.00
59729;BME280;45588;51.598;5.618;2022-09-09T02:19:36;100596.84;;;12.67;100.00
59729;BME280;45588;51.598;5.618;2022-09-09T02:22:03;100589.00;;;12.64;100.00
59729;BME280;45588;51.598;5.618;2022-09-09T02:24:31;100592.47;;;12.65;100.00
59729;BME280;45588;51.598;5.618;2022-09-09T02:26:59;100589.84;;;12.60;100.00
59729;BME280;45588;51.598;5.618;2022-09-09T02:29:34;100587.25;;;12.63;100.00
59729;BME280;45588;51.598;5.618;2022-09-09T02:32:03;100589.00;;;12.64;100.00
59729;BME280;45588;51.598;5.618;2022-09-09T02:34:31;100586.38;;;12.63;100.00
59729;BME280;45588;51.598;5.618;2022-09-09T02:36:59;100592.47;;;12.63;100.00
59729;BME280;45588;51.598;5.618;2022-09-09T02:39:25;100595.06;;;12.60;100.00
59729;BME280;45588;51.598;5.618;2022-09-09T02:41:51;100597.69;;;12.60;100.00
59729;BME280;45588;51.598;5.618;2022-09-09T02:44:18;100596.81;;;12.61;100.00
59729;BME280;45588;51.598;5.618;2022-09-09T02:49:41;100589.00;;;12.63;100.00
59729;BME280;45588;51.598;5.618;2022-09-09T02:52:13;100592.44;;;12.59;100.00
59729;BME280;45588;51.598;5.618;2022-09-09T02:54:43;100596.78;;;12.60;100.00
59729;BME280;45588;51.598;5.618;2022-09-09T02:57:22;100594.16;;;12.60;100.00
59729;BME280;45588;51.598;5.618;2022-09-09T02:59:49;100598.53;;;12.59;100.00
59729;BME280;45588;51.598;5.618;2022-09-09T03:02:17;100586.31;;;12.56;100.00
59729;BME280;45588;51.598;5.618;2022-09-09T03:04:44;100597.69;;;12.60;100.00
59729;BME280;45588;51.598;5.618;2022-09-09T03:07:10;100601.16;;;12.61;100.00
59729;BME280;45588;51.598;5.618;2022-09-09T03:09:35;100604.63;;;12.61;100.00
59729;BME280;45588;51.598;5.618;2022-09-09T03:12:01;100601.16;;;12.62;100.00
59729;BME280;45588;51.598;5.618;2022-09-09T03:14:26;100597.69;;;12.65;100.00
59729;BME280;45588;51.598;5.618;2022-09-09T03:16:52;100599.53;;;12.70;100.00
59729;BME280;45588;51.598;5.618;2022-09-09T03:19:17;100595.13;;;12.69;100.00
59729;BME280;45588;51.598;5.618;2022-09-09T03:21:44;100596.06;;;12.74;100.00
59729;BME280;45588;51.598;5.618;2022-09-09T03:24:09;100594.31;;;12.75;100.00
59729;BME280;45588;51.598;5.618;2022-09-09T03:26:35;100591.72;;;12.75;100.00
59729;BME280;45588;51.598;5.618;2022-09-09T03:29:00;100595.25;;;12.78;100.00
59729;BME280;45588;51.598;5.618;2022-09-09T03:31:26;100600.50;;;12.80;100.00
59729;BME280;45588;51.598;5.618;2022-09-09T03:33:55;100599.59;;;12.80;100.00
59729;BME280;45588;51.598;5.618;2022-09-09T03:36:20;100596.97;;;12.80;100.00
59729;BME280;45588;51.598;5.618;2022-09-09T03:38:46;100605.72;;;12.82;100.00
59729;BME280;45588;51.598;5.618;2022-09-09T03:41:11;100603.97;;;12.82;100.00
59729;BME280;45588;51.598;5.618;2022-09-09T03:43:37;100612.75;;;12.89;100.00
59729;BME280;45588;51.598;5.618;2022-09-09T03:46:03;100606.66;;;12.90;100.00
59729;BME280;45588;51.598;5.618;2022-09-09T03:48:28;100610.19;;;12.92;100.00
59729;BME280;45588;51.598;5.618;2022-09-09T03:50:54;100599.78;;;12.96;100.00
59729;BME280;45588;51.598;5.618;2022-09-09T03:53:25;100607.66;;;13.01;100.00
59729;BME280;45588;51.598;5.618;2022-09-09T03:55:54;100603.31;;;13.02;100.00
59729;BME280;45588;51.598;5.618;2022-09-09T03:58:21;100596.31;;;13.02;100.00
59729;BME280;45588;51.598;5.618;2022-09-09T04:00:57;100609.47;;;13.08;100.00
59729;BME280;45588;51.598;5.618;2022-09-09T04:03:23;100602.53;;;13.10;100.00
59729;BME280;45588;51.598;5.618;2022-09-09T04:05:50;100589.44;;;13.12;100.00
59729;BME280;45588;51.598;5.618;2022-09-09T04:08:16;100595.56;;;13.14;100.00
59729;BME280;45588;51.598;5.618;2022-09-09T04:10:41;100587.75;;;13.17;100.00
59729;BME280;45588;51.598;5.618;2022-09-09T04:13:07;100592.13;;;13.23;100.00
59729;BME280;45588;51.598;5.618;2022-09-09T04:15:32;100590.44;;;13.23;100.00
59729;BME280;45588;51.598;5.618;2022-09-09T04:17:58;100594.81;;;13.26;100.00
59729;BME280;45588;51.598;5.618;2022-09-09T04:20:23;100594.84;;;13.29;100.00
59729;BME280;45588;51.598;5.618;2022-09-09T04:22:49;100588.75;;;13.30;100.00
59729;BME280;45588;51.598;5.618;2022-09-09T04:25:14;100583.53;;;13.28;100.00
59729;BME280;45588;51.598;5.618;2022-09-09T04:27:40;100579.16;;;13.30;100.00
59729;BME280;45588;51.598;5.618;2022-09-09T04:30:06;100584.44;;;13.35;100.00
59729;BME280;45588;51.598;5.618;2022-09-09T04:32:33;100580.06;;;13.35;100.00
59729;BME280;45588;51.598;5.618;2022-09-09T04:34:58;100583.56;;;13.37;100.00
59729;BME280;45588;51.598;5.618;2022-09-09T04:37:23;100578.38;;;13.39;100.00
59729;BME280;45588;51.598;5.618;2022-09-09T04:39:50;100587.97;;;13.41;100.00
59729;BME280;45588;51.598;5.618;2022-09-09T04:42:15;100576.66;;;13.41;100.00
59729;BME280;45588;51.598;5.618;2022-09-09T04:44:41;100579.22;;;13.39;100.00
59729;BME280;45588;51.598;5.618;2022-09-09T04:47:06;100569.66;;;13.38;100.00
59729;BME280;45588;51.598;5.618;2022-09-09T04:49:31;100570.50;;;13.40;100.00
59729;BME280;45588;51.598;5.618;2022-09-09T04:51:57;100566.16;;;13.42;100.00
59729;BME280;45588;51.598;5.618;2022-09-09T04:54:22;100565.31;;;13.44;100.00
59729;BME280;45588;51.598;5.618;2022-09-09T04:56:50;100564.47;;;13.48;100.00
59729;BME280;45588;51.598;5.618;2022-09-09T04:59:15;100568.81;;;13.47;100.00
59729;BME280;45588;51.598;5.618;2022-09-09T05:01:41;100571.44;;;13.46;100.00
59729;BME280;45588;51.598;5.618;2022-09-09T05:04:07;100562.69;;;13.45;100.00
59729;BME280;45588;51.598;5.618;2022-09-09T05:06:33;100565.31;;;13.45;100.00
59729;BME280;45588;51.598;5.618;2022-09-09T05:08:58;100584.50;;;13.44;100.00
59729;BME280;45588;51.598;5.618;2022-09-09T05:11:27;100572.25;;;13.38;100.00
59729;BME280;45588;51.598;5.618;2022-09-09T05:13:53;100576.63;;;13.39;100.00
59729;BME280;45588;51.598;5.618;2022-09-09T05:16:20;100567.03;;;13.38;100.00
59729;BME280;45588;51.598;5.618;2022-09-09T05:18:45;100571.41;;;13.41;100.00
59729;BME280;45588;51.598;5.618;2022-09-09T05:21:12;100576.66;;;13.44;100.00
59729;BME280;45588;51.598;5.618;2022-09-09T05:23:38;100556.59;;;13.43;100.00
59729;BME280;45588;51.598;5.618;2022-09-09T05:26:04;100566.25;;;13.52;100.00
59729;BME280;45588;51.598;5.618;2022-09-09T05:28:30;100562.78;;;13.54;100.00
59729;BME280;45588;51.598;5.618;2022-09-09T05:31:01;100564.53;;;13.60;100.00
59729;BME280;45588;51.598;5.618;2022-09-09T05:33:29;100560.16;;;13.57;100.00
59729;BME280;45588;51.598;5.618;2022-09-09T05:35:56;100563.69;;;13.62;100.00
59729;BME280;45588;51.598;5.618;2022-09-09T05:38:21;100566.31;;;13.61;100.00
59729;BME280;45588;51.598;5.618;2022-09-09T05:40:49;100562.78;;;13.60;100.00
59729;BME280;45588;51.598;5.618;2022-09-09T05:43:15;100554.94;;;13.60;100.00
59729;BME280;45588;51.598;5.618;2022-09-09T05:45:40;100564.56;;;13.61;100.00
59729;BME280;45588;51.598;5.618;2022-09-09T05:48:05;100552.38;;;13.63;100.00
59729;BME280;45588;51.598;5.618;2022-09-09T05:50:30;100567.16;;;13.63;100.00
59729;BME280;45588;51.598;5.618;2022-09-09T05:52:56;100565.44;;;13.63;100.00
59729;BME280;45588;51.598;5.618;2022-09-09T05:55:21;100563.72;;;13.70;100.00
59729;BME280;45588;51.598;5.618;2022-09-09T05:57:50;100566.34;;;13.70;100.00
59729;BME280;45588;51.598;5.618;2022-09-09T06:00:17;100584.75;;;13.87;100.00
59729;BME280;45588;51.598;5.618;2022-09-09T06:02:42;100579.59;;;13.99;100.00
59729;BME280;45588;51.598;5.618;2022-09-09T06:05:07;100583.16;;;14.14;100.00
59729;BME280;45588;51.598;5.618;2022-09-09T06:07:33;100588.41;;;14.26;100.00
59729;BME280;45588;51.598;5.618;2022-09-09T06:09:58;100579.75;;;14.41;100.00
59729;BME280;45588;51.598;5.618;2022-09-09T06:12:25;100585.94;;;14.54;100.00
59729;BME280;45588;51.598;5.618;2022-09-09T06:14:51;100577.22;;;14.55;100.00
59729;BME280;45588;51.598;5.618;2022-09-09T06:17:16;100585.09;;;14.59;100.00
59729;BME280;45588;51.598;5.618;2022-09-09T06:19:42;100589.47;;;14.65;100.00
59729;BME280;45588;51.598;5.618;2022-09-09T06:22:07;100582.47;;;14.76;100.00
59729;BME280;45588;51.598;5.618;2022-09-09T06:24:34;100574.63;;;14.84;100.00
59729;BME280;45588;51.598;5.618;2022-09-09T06:26:59;100577.28;;;14.95;100.00
59729;BME280;45588;51.598;5.618;2022-09-09T06:29:25;100584.25;;;15.03;100.00
59729;BME280;45588;51.598;5.618;2022-09-09T06:31:50;100574.66;;;15.07;100.00
59729;BME280;45588;51.598;5.618;2022-09-09T06:34:15;100577.28;;;15.21;100.00
59729;BME280;45588;51.598;5.618;2022-09-09T06:36:41;100572.03;;;15.22;100.00
59729;BME280;45588;51.598;5.618;2022-09-09T06:39:07;100575.53;;;15.26;100.00
59729;BME280;45588;51.598;5.618;2022-09-09T06:41:33;100584.22;;;15.49;100.00
59729;BME280;45588;51.598;5.618;2022-09-09T06:43:59;100579.84;;;15.54;100.00
59729;BME280;45588;51.598;5.618;2022-09-09T06:46:27;100587.72;;;15.64;100.00
59729;BME280;45588;51.598;5.618;2022-09-09T06:48:54;100566.72;;;15.70;100.00
59729;BME280;45588;51.598;5.618;2022-09-09T06:51:25;100577.19;;;15.91;100.00
59729;BME280;45588;51.598;5.618;2022-09-09T06:53:55;100571.94;;;15.93;100.00
59729;BME280;45588;51.598;5.618;2022-09-09T06:56:26;100571.88;;;16.04;100.00
59729;BME280;45588;51.598;5.618;2022-09-09T06:58:53;100564.84;;;16.13;100.00
59729;BME280;45588;51.598;5.618;2022-09-09T07:01:24;100566.56;;;16.19;100.00
59729;BME280;45588;51.598;5.618;2022-09-09T07:03:51;100568.22;;;16.35;100.00
59729;BME280;45588;51.598;5.618;2022-09-09T07:06:18;100576.09;;;16.43;100.00
59729;BME280;45588;51.598;5.618;2022-09-09T07:08:48;100568.19;;;16.44;100.00
59729;BME280;45588;51.598;5.618;2022-09-09T07:11:14;100560.31;;;16.44;100.00
59729;BME280;45588;51.598;5.618;2022-09-09T07:13:39;100563.81;;;16.48;100.00
59729;BME280;45588;51.598;5.618;2022-09-09T07:16:09;100560.31;;;16.46;100.00
59729;BME280;45588;51.598;5.618;2022-09-09T07:18:35;100562.00;;;16.50;100.00
59729;BME280;45588;51.598;5.618;2022-09-09T07:21:01;100569.00;;;16.54;100.00
59729;BME280;45588;51.598;5.618;2022-09-09T07:23:28;100563.72;;;16.62;100.00
59729;BME280;45588;51.598;5.618;2022-09-09T07:25:54;100572.41;;;16.81;100.00
59729;BME280;45588;51.598;5.618;2022-09-09T07:28:20;100560.91;;;16.90;100.00
59729;BME280;45588;51.598;5.618;2022-09-09T07:30:56;100564.31;;;17.04;100.00
59729;BME280;45588;51.598;5.618;2022-09-09T07:33:21;100563.28;;;17.22;100.00
59729;BME280;45588;51.598;5.618;2022-09-09T07:35:47;100562.34;;;17.29;100.00
59729;BME280;45588;51.598;5.618;2022-09-09T07:38:12;100557.03;;;17.35;100.00
59729;BME280;45588;51.598;5.618;2022-09-09T07:40:37;100564.88;;;17.41;100.00
59729;BME280;45588;51.598;5.618;2022-09-09T07:43:04;100556.00;;;17.48;100.00
59729;BME280;45588;51.598;5.618;2022-09-09T07:45:29;100561.94;;;17.72;100.00
59729;BME280;45588;51.598;5.618;2022-09-09T07:47:57;100571.59;;;17.71;100.00
59729;BME280;45588;51.598;5.618;2022-09-09T07:50:23;100562.91;;;17.59;100.00
59729;BME280;45588;51.598;5.618;2022-09-09T07:52:49;100568.25;;;17.51;100.00
59729;BME280;45588;51.598;5.618;2022-09-09T07:55:14;100577.16;;;17.41;100.00
59729;BME280;45588;51.598;5.618;2022-09-09T07:57:40;100575.47;;;17.30;100.00
59729;BME280;45588;51.598;5.618;2022-09-09T08:00:06;100579.09;;;17.20;100.00
59729;BME280;45588;51.598;5.618;2022-09-09T08:02:31;100575.72;;;17.04;100.00
59729;BME280;45588;51.598;5.618;2022-09-09T08:04:56;100572.25;;;16.99;100.00
59729;BME280;45588;51.598;5.618;2022-09-09T08:07:22;100573.06;;;17.07;100.00
59729;BME280;45588;51.598;5.618;2022-09-09T08:09:48;100580.84;;;17.20;100.00
59729;BME280;45588;51.598;5.618;2022-09-09T08:12:14;100580.81;;;17.24;100.00
59729;BME280;45588;51.598;5.618;2022-09-09T08:14:39;100577.22;;;17.35;100.00
59729;BME280;45588;51.598;5.618;2022-09-09T08:17:05;100578.94;;;17.36;100.00
59729;BME280;45588;51.598;5.618;2022-09-09T08:19:30;100582.28;;;17.53;100.00
59729;BME280;45588;51.598;5.618;2022-09-09T08:21:59;100587.56;;;17.53;100.00
59729;BME280;45588;51.598;5.618;2022-09-09T08:24:24;100589.28;;;17.57;100.00
59729;BME280;45588;51.598;5.618;2022-09-09T08:26:50;100595.34;;;17.65;100.00
59729;BME280;45588;51.598;5.618;2022-09-09T08:29:15;100580.31;;;17.80;100.00
59729;BME280;45588;51.598;5.618;2022-09-09T08:31:45;100585.53;;;17.84;100.00
59729;BME280;45588;51.598;5.618;2022-09-09T08:34:11;100578.44;;;17.89;100.00
59729;BME280;45588;51.598;5.618;2022-09-09T08:36:42;100593.44;;;17.78;100.00
59729;BME280;45588;51.598;5.618;2022-09-09T08:39:08;100595.94;;;17.93;100.00
59729;BME280;45588;51.598;5.618;2022-09-09T08:44:23;100605.75;;;17.76;100.00
59729;BME280;45588;51.598;5.618;2022-09-09T08:50:11;100597.81;;;17.84;100.00
59729;BME280;45588;51.598;5.618;2022-09-09T08:53:11;100598.75;;;17.73;100.00
59729;BME280;45588;51.598;5.618;2022-09-09T08:58:15;100604.16;;;17.63;100.00
59729;BME280;45588;51.598;5.618;2022-09-09T09:06:23;100614.56;;;17.75;100.00
59729;BME280;45588;51.598;5.618;2022-09-09T09:09:06;100611.03;;;17.79;100.00
59729;BME280;45588;51.598;5.618;2022-09-09T09:11:38;100610.31;;;17.59;100.00
59729;BME280;45588;51.598;5.618;2022-09-09T09:14:11;100620.84;;;17.62;100.00
59729;BME280;45588;51.598;5.618;2022-09-09T09:16:52;100617.38;;;17.57;100.00
59729;BME280;45588;51.598;5.618;2022-09-09T09:19:18;100610.44;;;17.48;100.00
59729;BME280;45588;51.598;5.618;2022-09-09T09:21:47;100614.13;;;17.27;100.00
59729;BME280;45588;51.598;5.618;2022-09-09T09:24:31;100615.88;;;17.28;100.00
59729;BME280;45588;51.598;5.618;2022-09-09T09:27:08;100616.81;;;17.18;100.00
59729;BME280;45588;51.598;5.618;2022-09-09T09:29:38;100616.84;;;17.16;100.00
59729;BME280;45588;51.598;5.618;2022-09-09T09:32:05;100611.63;;;17.10;100.00
59729;BME280;45588;51.598;5.618;2022-09-09T09:34:35;100608.91;;;17.21;100.00
59729;BME280;45588;51.598;5.618;2022-09-09T09:37:01;100615.97;;;17.16;100.00
59729;BME280;45588;51.598;5.618;2022-09-09T09:39:31;100614.13;;;17.27;100.00
59729;BME280;45588;51.598;5.618;2022-09-09T09:42:09;100615.78;;;17.39;100.00
59729;BME280;45588;51.598;5.618;2022-09-09T09:44:36;100623.63;;;17.45;100.00
59729;BME280;45588;51.598;5.618;2022-09-09T09:47:10;100607.75;;;17.51;100.00
59729;BME280;45588;51.598;5.618;2022-09-09T09:49:37;100612.03;;;17.63;100.00
59729;BME280;45588;51.598;5.618;2022-09-09T09:52:04;100613.78;;;17.67;100.00
59729;BME280;45588;51.598;5.618;2022-09-09T09:54:32;100612.75;;;17.79;100.00
59729;BME280;45588;51.598;5.618;2022-09-09T09:57:12;100615.97;;;18.08;100.00
59729;BME280;45588;51.598;5.618;2022-09-09T09:59:38;100602.63;;;18.24;100.00
59729;BME280;45588;51.598;5.618;2022-09-09T10:02:14;100606.72;;;18.46;100.00
59729;BME280;45588;51.598;5.618;2022-09-09T10:04:40;100605.75;;;18.55;100.00
59729;BME280;45588;51.598;5.618;2022-09-09T10:07:11;100609.88;;;18.77;100.00
59729;BME280;45588;51.598;5.618;2022-09-09T10:09:36;100607.81;;;18.96;100.00
59729;BME280;45588;51.598;5.618;2022-09-09T10:12:30;100606.06;;;18.95;100.00
59729;BME280;45588;51.598;5.618;2022-09-09T10:15:32;100616.81;;;18.81;100.00
59729;BME280;45588;51.598;5.618;2022-09-09T10:18:24;100611.84;;;18.57;100.00
59729;BME280;45588;51.598;5.618;2022-09-09T10:31:43;100619.78;;;17.78;100.00
59729;BME280;45588;51.598;5.618;2022-09-09T10:36:52;100624.22;;;17.73;100.00
59729;BME280;45588;51.598;5.618;2022-09-09T10:39:39;100635.72;;;17.66;100.00
59729;BME280;45588;51.598;5.618;2022-09-09T10:42:13;100629.47;;;17.79;100.00
59729;BME280;45588;51.598;5.618;2022-09-09T10:44:42;100629.72;;;17.48;100.00
59729;BME280;45588;51.598;5.618;2022-09-09T10:47:29;100633.28;;;17.44;100.00
59729;BME280;45588;51.598;5.618;2022-09-09T10:55:09;100638.88;;;17.06;100.00
59729;BME280;45588;51.598;5.618;2022-09-09T10:57:53;100638.88;;;17.01;100.00
59729;BME280;45588;51.598;5.618;2022-09-09T11:03:02;100631.09;;;16.86;100.00
59729;BME280;45588;51.598;5.618;2022-09-09T11:08:03;100618.69;;;17.05;100.00
59729;BME280;45588;51.598;5.618;2022-09-09T11:11:04;100622.09;;;17.18;100.00
59729;BME280;45588;51.598;5.618;2022-09-09T11:13:41;100626.31;;;17.39;100.00
59729;BME280;45588;51.598;5.618;2022-09-09T11:19:37;100628.59;;;17.80;100.00
59729;BME280;45588;51.598;5.618;2022-09-09T11:22:25;100619.75;;;17.87;100.00
59729;BME280;45588;51.598;5.618;2022-09-09T11:25:05;100623.97;;;18.02;100.00
59729;BME280;45588;51.598;5.618;2022-09-09T11:30:20;100606.56;;;17.86;100.00
59729;BME280;45588;51.598;5.618;2022-09-09T11:40:43;100624.88;;;17.97;100.00
59729;BME280;45588;51.598;5.618;2022-09-09T11:43:13;100615.06;;;18.12;100.00
59729;BME280;45588;51.598;5.618;2022-09-09T11:45:43;100616.03;;;18.07;100.00
59729;BME280;45588;51.598;5.618;2022-09-09T11:48:35;100616.03;;;18.05;100.00
59729;BME280;45588;51.598;5.618;2022-09-09T11:51:09;100615.25;;;17.97;100.00
59729;BME280;45588;51.598;5.618;2022-09-09T11:53:49;100612.56;;;17.99;100.00
59729;BME280;45588;51.598;5.618;2022-09-09T11:56:28;100608.19;;;17.99;100.00
59729;BME280;45588;51.598;5.618;2022-09-09T12:01:33;100617.31;;;17.63;100.00
59729;BME280;45588;51.598;5.618;2022-09-09T12:06:43;100606.94;;;17.46;100.00
59729;BME280;45588;51.598;5.618;2022-09-09T12:09:19;100613.16;;;17.37;100.00
59729;BME280;45588;51.598;5.618;2022-09-09T12:11:48;100612.41;;;17.24;100.00
59729;BME280;45588;51.598;5.618;2022-09-09T12:14:37;100614.94;;;17.35;100.00
59729;BME280;45588;51.598;5.618;2022-09-09T12:17:16;100610.47;;;17.43;100.00
59729;BME280;45588;51.598;5.618;2022-09-09T12:19:43;100609.41;;;17.64;100.00
59729;BME280;45588;51.598;5.618;2022-09-09T12:22:22;100614.53;;;17.78;100.00
59729;BME280;45588;51.598;5.618;2022-09-09T12:25:15;100608.97;;;18.07;100.00
59729;BME280;45588;51.598;5.618;2022-09-09T12:27:47;100611.28;;;18.35;100.00
59729;BME280;45588;51.598;5.618;2022-09-09T12:30:18;100600.50;;;18.52;100.00
59729;BME280;45588;51.598;5.618;2022-09-09T12:32:45;100599.66;;;18.50;100.00
59729;BME280;45588;51.598;5.618;2022-09-09T12:35:20;100601.06;;;18.77;100.00
59729;BME280;45588;51.598;5.618;2022-09-09T12:37:53;100593.88;;;18.88;100.00
59729;BME280;45588;51.598;5.618;2022-09-09T12:40:26;100599.06;;;18.93;100.00
59729;BME280;45588;51.598;5.618;2022-09-09T12:42:51;100602.59;;;18.93;100.00
59729;BME280;45588;51.598;5.618;2022-09-09T12:45:25;100605.28;;;18.87;100.00
59729;BME280;45588;51.598;5.618;2022-09-09T12:50:30;100600.19;;;18.78;100.00
59729;BME280;45588;51.598;5.618;2022-09-09T12:53:13;100594.72;;;18.89;100.00
59729;BME280;45588;51.598;5.618;2022-09-09T12:55:50;100594.84;;;18.83;100.00
59729;BME280;45588;51.598;5.618;2022-09-09T12:58:18;100585.25;;;18.75;100.00
59729;BME280;45588;51.598;5.618;2022-09-09T13:00:52;100587.78;;;18.81;100.00
59729;BME280;45588;51.598;5.618;2022-09-09T13:03:20;100578.28;;;18.70;100.00
59729;BME280;45588;51.598;5.618;2022-09-09T13:05:46;100576.84;;;18.46;100.00
59729;BME280;45588;51.598;5.618;2022-09-09T13:08:13;100591.75;;;18.50;100.00
59729;BME280;45588;51.598;5.618;2022-09-09T13:10:50;100579.50;;;18.44;100.00
59729;BME280;45588;51.598;5.618;2022-09-09T13:13:23;100576.31;;;18.19;100.00
59729;BME280;45588;51.598;5.618;2022-09-09T13:15:59;100585.28;;;18.06;100.00
59729;BME280;45588;51.598;5.618;2022-09-09T13:18:31;100587.19;;;17.91;100.00
59729;BME280;45588;51.598;5.618;2022-09-09T13:20:58;100585.66;;;17.69;100.00
59729;BME280;45588;51.598;5.618;2022-09-09T13:23:27;100561.19;;;17.58;100.00
59729;BME280;45588;51.598;5.618;2022-09-09T13:25:55;100561.34;;;17.44;100.00
59729;BME280;45588;51.598;5.618;2022-09-09T13:28:23;100535.22;;;17.22;100.00
59729;BME280;45588;51.598;5.618;2022-09-09T13:33:35;100577.59;;;16.89;100.00
59729;BME280;45588;51.598;5.618;2022-09-09T13:36:09;100574.03;;;16.94;100.00
59729;BME280;45588;51.598;5.618;2022-09-09T13:38:38;100575.63;;;17.17;100.00
59729;BME280;45588;51.598;5.618;2022-09-09T13:41:07;100579.69;;;17.51;100.00
59729;BME280;45588;51.598;5.618;2022-09-09T13:43:42;100569.66;;;17.90;100.00
59729;BME280;45588;51.598;5.618;2022-09-09T13:48:59;100567.28;;;18.38;100.00
59729;BME280;45588;51.598;5.618;2022-09-09T13:51:45;100563.31;;;18.70;100.00
59729;BME280;45588;51.598;5.618;2022-09-09T13:54:13;100563.28;;;18.73;100.00
59729;BME280;45588;51.598;5.618;2022-09-09T13:56:40;100558.63;;;18.91;100.00
59729;BME280;45588;51.598;5.618;2022-09-09T13:59:11;100566.50;;;18.92;100.00
59729;BME280;45588;51.598;5.618;2022-09-09T14:01:36;100559.63;;;18.84;100.00
59729;BME280;45588;51.598;5.618;2022-09-09T14:04:02;100559.94;;;18.60;100.00
59729;BME280;45588;51.598;5.618;2022-09-09T14:06:29;100569.56;;;18.63;100.00
59729;BME280;45588;51.598;5.618;2022-09-09T14:08:54;100567.09;;;18.52;100.00
59729;BME280;45588;51.598;5.618;2022-09-09T14:11:20;100573.09;;;18.64;100.00
59729;BME280;45588;51.598;5.618;2022-09-09T14:13:46;100566.19;;;18.55;100.00
59729;BME280;45588;51.598;5.618;2022-09-09T14:16:12;100565.28;;;18.56;100.00
59729;BME280;45588;51.598;5.618;2022-09-09T14:18:37;100562.59;;;18.60;100.00
59729;BME280;45588;51.598;5.618;2022-09-09T14:21:04;100553.63;;;18.71;100.00
59729;BME280;45588;51.598;5.618;2022-09-09T14:23:29;100556.00;;;18.91;100.00